sensor_id;sensor_type;location;lat;lon;timestamp;temperature;humidity
57282;DHT22;43129;52.628;10.098;2023-07-28T00:00:51;17.20;99.90
57282;DHT22;43129;52.628;10.098;2023-07-28T00:03:16;17.20;99.90
57282;DHT22;43129;52.628;10.098;2023-07-28T00:05:44;17.20;99.90
57282;DHT22;43129;52.628;10.098;2023-07-28T00:08:10;17.20;99.90
57282;DHT22;43129;52.628;10.098;2023-07-28T00:10:40;17.20;99.90
57282;DHT22;43129;52.628;10.098;2023-07-28T00:13:06;17.20;99.90
57282;DHT22;43129;52.628;10.098;2023-07-28T00:15:37;17.20;99.90
57282;DHT22;43129;52.628;10.098;2023-07-28T00:18:02;17.20;99.90
57282;DHT22;43129;52.628;10.098;2023-07-28T00:20:28;17.20;99.90
57282;DHT22;43129;52.628;10.098;2023-07-28T00:22:54;17.10;99.90
57282;DHT22;43129;52.628;10.098;2023-07-28T00:25:19;17.20;99.90
57282;DHT22;43129;52.628;10.098;2023-07-28T00:27:47;17.20;99.90
57282;DHT22;43129;52.628;10.098;2023-07-28T00:30:13;17.20;99.90
57282;DHT22;43129;52.628;10.098;2023-07-28T00:32:41;17.20;99.90
57282;DHT22;43129;52.628;10.098;2023-07-28T00:35:07;17.10;99.90
57282;DHT22;43129;52.628;10.098;2023-07-28T00:37:33;17.10;99.90
57282;DHT22;43129;52.628;10.098;2023-07-28T00:39:58;17.10;99.90
57282;DHT22;43129;52.628;10.098;2023-07-28T00:42:24;17.10;99.90
57282;DHT22;43129;52.628;10.098;2023-07-28T00:44:49;17.10;99.90
57282;DHT22;43129;52.628;10.098;2023-07-28T00:47:15;17.10;99.90
57282;DHT22;43129;52.628;10.098;2023-07-28T00:49:45;17.10;99.90
57282;DHT22;43129;52.628;10.098;2023-07-28T00:52:11;17.10;99.90
57282;DHT22;43129;52.628;10.098;2023-07-28T00:54:36;17.10;99.90
57282;DHT22;43129;52.628;10.098;2023-07-28T00:57:04;17.10;99.90
57282;DHT22;43129;52.628;10.098;2023-07-28T00:59:33;17.10;99.90
57282;DHT22;43129;52.628;10.098;2023-07-28T01:01:59;17.10;99.90
57282;DHT22;43129;52.628;10.098;2023-07-28T01:04:27;17.10;99.90
57282;DHT22;43129;52.628;10.098;2023-07-28T01:06:53;17.10;99.90
57282;DHT22;43129;52.628;10.098;2023-07-28T01:09:27;17.10;99.90
57282;DHT22;43129;52.628;10.098;2023-07-28T01:11:56;17.10;99.90
57282;DHT22;43129;52.628;10.098;2023-07-28T01:14:24;17.10;99.90
57282;DHT22;43129;52.628;10.098;2023-07-28T01:16:50;17.10;99.90
57282;DHT22;43129;52.628;10.098;2023-07-28T01:19:22;17.10;99.90
57282;DHT22;43129;52.628;10.098;2023-07-28T01:21:57;17.10;99.90
57282;DHT22;43129;52.628;10.098;2023-07-28T01:24:51;17.10;99.90
57282;DHT22;43129;52.628;10.098;2023-07-28T01:27:21;17.10;99.90
57282;DHT22;43129;52.628;10.098;2023-07-28T01:29:49;17.10;99.90
57282;DHT22;43129;52.628;10.098;2023-07-28T01:32:15;17.10;99.90
57282;DHT22;43129;52.628;10.098;2023-07-28T01:34:43;17.10;99.90
57282;DHT22;43129;52.628;10.098;2023-07-28T01:37:09;17.10;99.90
57282;DHT22;43129;52.628;10.098;2023-07-28T01:39:41;17.10;99.90
57282;DHT22;43129;52.628;10.098;2023-07-28T01:42:06;17.10;99.90
57282;DHT22;43129;52.628;10.098;2023-07-28T01:44:35;17.00;99.90
57282;DHT22;43129;52.628;10.098;2023-07-28T01:47:05;17.10;99.90
57282;DHT22;43129;52.628;10.098;2023-07-28T01:49:33;17.10;99.90
57282;DHT22;43129;52.628;10.098;2023-07-28T01:52:03;17.10;99.90
57282;DHT22;43129;52.628;10.098;2023-07-28T01:54:29;17.10;99.90
57282;DHT22;43129;52.628;10.098;2023-07-28T01:56:55;17.10;99.90
57282;DHT22;43129;52.628;10.098;2023-07-28T01:59:23;17.10;99.90
57282;DHT22;43129;52.628;10.098;2023-07-28T02:01:48;17.00;99.90
57282;DHT22;43129;52.628;10.098;2023-07-28T02:04:16;17.00;99.90
57282;DHT22;43129;52.628;10.098;2023-07-28T02:06:45;17.00;99.90
57282;DHT22;43129;52.628;10.098;2023-07-28T02:09:15;17.00;99.90
57282;DHT22;43129;52.628;10.098;2023-07-28T02:11:42;17.00;99.90
57282;DHT22;43129;52.628;10.098;2023-07-28T02:14:08;17.00;99.90
57282;DHT22;43129;52.628;10.098;2023-07-28T02:16:33;17.00;99.90
57282;DHT22;43129;52.628;10.098;2023-07-28T02:19:01;17.00;99.90
57282;DHT22;43129;52.628;10.098;2023-07-28T02:21:29;17.00;99.90
57282;DHT22;43129;52.628;10.098;2023-07-28T02:23:55;17.00;99.90
57282;DHT22;43129;52.628;10.098;2023-07-28T02:26:20;17.00;99.90
57282;DHT22;43129;52.628;10.098;2023-07-28T02:28:46;17.00;99.90
57282;DHT22;43129;52.628;10.098;2023-07-28T02:31:12;17.00;99.90
57282;DHT22;43129;52.628;10.098;2023-07-28T02:33:40;17.00;99.90
57282;DHT22;43129;52.628;10.098;2023-07-28T02:36:05;17.00;99.90
57282;DHT22;43129;52.628;10.098;2023-07-28T02:38:31;17.00;99.90
57282;DHT22;43129;52.628;10.098;2023-07-28T02:40:57;17.00;99.90
57282;DHT22;43129;52.628;10.098;2023-07-28T02:43:22;17.00;99.90
57282;DHT22;43129;52.628;10.098;2023-07-28T02:45:53;17.00;99.90
57282;DHT22;43129;52.628;10.098;2023-07-28T02:48:20;17.00;99.90
57282;DHT22;43129;52.628;10.098;2023-07-28T02:50:47;16.90;99.90
57282;DHT22;43129;52.628;10.098;2023-07-28T02:53:13;16.90;99.90
57282;DHT22;43129;52.628;10.098;2023-07-28T02:55:43;16.90;99.90
57282;DHT22;43129;52.628;10.098;2023-07-28T02:58:10;17.00;99.90
57282;DHT22;43129;52.628;10.098;2023-07-28T03:00:38;16.90;99.90
57282;DHT22;43129;52.628;10.098;2023-07-28T03:03:05;17.00;99.90
57282;DHT22;43129;52.628;10.098;2023-07-28T03:05:31;17.00;99.90
57282;DHT22;43129;52.628;10.098;2023-07-28T03:08:02;16.90;99.90
57282;DHT22;43129;52.628;10.098;2023-07-28T03:10:30;16.90;99.90
57282;DHT22;43129;52.628;10.098;2023-07-28T03:12:56;17.00;99.90
57282;DHT22;43129;52.628;10.098;2023-07-28T03:15:22;16.90;99.90
57282;DHT22;43129;52.628;10.098;2023-07-28T03:17:49;17.00;99.90
57282;DHT22;43129;52.628;10.098;2023-07-28T03:20:19;17.00;99.90
57282;DHT22;43129;52.628;10.098;2023-07-28T03:22:45;17.00;99.90
57282;DHT22;43129;52.628;10.098;2023-07-28T03:25:12;17.00;99.90
57282;DHT22;43129;52.628;10.098;2023-07-28T03:27:37;17.00;99.90
57282;DHT22;43129;52.628;10.098;2023-07-28T03:30:08;17.00;99.90
57282;DHT22;43129;52.628;10.098;2023-07-28T03:32:36;17.00;99.90
57282;DHT22;43129;52.628;10.098;2023-07-28T03:35:02;17.00;99.90
57282;DHT22;43129;52.628;10.098;2023-07-28T03:37:33;17.00;99.90
57282;DHT22;43129;52.628;10.098;2023-07-28T03:39:59;17.00;99.90
57282;DHT22;43129;52.628;10.098;2023-07-28T03:42:27;17.00;99.90
57282;DHT22;43129;52.628;10.098;2023-07-28T03:44:58;16.90;99.90
57282;DHT22;43129;52.628;10.098;2023-07-28T03:47:26;16.90;99.90
57282;DHT22;43129;52.628;10.098;2023-07-28T03:49:51;17.00;99.90
57282;DHT22;43129;52.628;10.098;2023-07-28T03:52:19;17.00;99.90
57282;DHT22;43129;52.628;10.098;2023-07-28T03:54:45;17.00;99.90
57282;DHT22;43129;52.628;10.098;2023-07-28T03:57:10;17.00;99.90
57282;DHT22;43129;52.628;10.098;2023-07-28T03:59:36;17.00;99.90
57282;DHT22;43129;52.628;10.098;2023-07-28T04:02:02;17.00;99.90
57282;DHT22;43129;52.628;10.098;2023-07-28T04:04:28;16.90;99.90
57282;DHT22;43129;52.628;10.098;2023-07-28T04:06:53;16.90;99.90
57282;DHT22;43129;52.628;10.098;2023-07-28T04:09:19;17.00;99.90
57282;DHT22;43129;52.628;10.098;2023-07-28T04:11:48;17.00;99.90
57282;DHT22;43129;52.628;10.098;2023-07-28T04:14:13;17.00;99.90
57282;DHT22;43129;52.628;10.098;2023-07-28T04:16:40;17.00;99.90
57282;DHT22;43129;52.628;10.098;2023-07-28T04:19:07;17.00;99.90
57282;DHT22;43129;52.628;10.098;2023-07-28T04:21:33;17.00;99.90
57282;DHT22;43129;52.628;10.098;2023-07-28T04:23:59;17.00;99.90
57282;DHT22;43129;52.628;10.098;2023-07-28T04:26:25;17.00;99.90
57282;DHT22;43129;52.628;10.098;2023-07-28T04:28:51;17.00;99.90
57282;DHT22;43129;52.628;10.098;2023-07-28T04:31:19;17.00;99.90
57282;DHT22;43129;52.628;10.098;2023-07-28T04:33:44;17.00;99.90
57282;DHT22;43129;52.628;10.098;2023-07-28T04:36:12;17.00;99.90
57282;DHT22;43129;52.628;10.098;2023-07-28T04:38:42;17.00;99.90
57282;DHT22;43129;52.628;10.098;2023-07-28T04:41:10;17.00;99.90
57282;DHT22;43129;52.628;10.098;2023-07-28T04:43:36;17.00;99.90
57282;DHT22;43129;52.628;10.098;2023-07-28T04:46:02;17.00;99.90
57282;DHT22;43129;52.628;10.098;2023-07-28T04:48:27;17.00;99.90
57282;DHT22;43129;52.628;10.098;2023-07-28T04:50:53;17.00;99.90
57282;DHT22;43129;52.628;10.098;2023-07-28T04:53:22;17.00;99.90
57282;DHT22;43129;52.628;10.098;2023-07-28T04:55:47;17.00;99.90
57282;DHT22;43129;52.628;10.098;2023-07-28T04:58:13;17.00;99.90
57282;DHT22;43129;52.628;10.098;2023-07-28T05:00:38;17.00;99.90
57282;DHT22;43129;52.628;10.098;2023-07-28T05:03:04;17.00;99.90
57282;DHT22;43129;52.628;10.098;2023-07-28T05:05:30;17.00;99.90
57282;DHT22;43129;52.628;10.098;2023-07-28T05:07:55;17.00;99.90
57282;DHT22;43129;52.628;10.098;2023-07-28T05:10:21;17.00;99.90
57282;DHT22;43129;52.628;10.098;2023-07-28T05:12:49;17.00;99.90
57282;DHT22;43129;52.628;10.098;2023-07-28T05:15:17;17.00;99.90
57282;DHT22;43129;52.628;10.098;2023-07-28T05:17:45;17.00;99.90
57282;DHT22;43129;52.628;10.098;2023-07-28T05:20:11;17.00;99.90
57282;DHT22;43129;52.628;10.098;2023-07-28T05:22:39;17.00;99.90
57282;DHT22;43129;52.628;10.098;2023-07-28T05:25:07;16.90;99.90
57282;DHT22;43129;52.628;10.098;2023-07-28T05:27:35;17.00;99.90
57282;DHT22;43129;52.628;10.098;2023-07-28T05:30:01;17.00;99.90
57282;DHT22;43129;52.628;10.098;2023-07-28T05:32:26;17.00;99.90
57282;DHT22;43129;52.628;10.098;2023-07-28T05:34:52;17.00;99.90
57282;DHT22;43129;52.628;10.098;2023-07-28T05:37:18;17.00;99.90
57282;DHT22;43129;52.628;10.098;2023-07-28T05:39:43;17.00;99.90
57282;DHT22;43129;52.628;10.098;2023-07-28T05:42:09;17.00;99.90
57282;DHT22;43129;52.628;10.098;2023-07-28T05:44:35;17.00;99.90
57282;DHT22;43129;52.628;10.098;2023-07-28T05:47:01;17.10;99.90
57282;DHT22;43129;52.628;10.098;2023-07-28T05:49:28;17.10;99.90
57282;DHT22;43129;52.628;10.098;2023-07-28T05:51:57;17.00;99.90
57282;DHT22;43129;52.628;10.098;2023-07-28T05:54:23;17.10;99.90
57282;DHT22;43129;52.628;10.098;2023-07-28T05:56:51;17.10;99.90
57282;DHT22;43129;52.628;10.098;2023-07-28T05:59:16;17.10;99.90
57282;DHT22;43129;52.628;10.098;2023-07-28T06:01:42;17.00;99.90
57282;DHT22;43129;52.628;10.098;2023-07-28T06:04:08;17.10;99.90
57282;DHT22;43129;52.628;10.098;2023-07-28T06:06:38;17.10;99.90
57282;DHT22;43129;52.628;10.098;2023-07-28T06:09:03;17.10;99.90
57282;DHT22;43129;52.628;10.098;2023-07-28T06:11:29;17.20;99.90
57282;DHT22;43129;52.628;10.098;2023-07-28T06:13:55;17.20;99.90
57282;DHT22;43129;52.628;10.098;2023-07-28T06:16:21;17.20;99.90
57282;DHT22;43129;52.628;10.098;2023-07-28T06:18:54;17.30;99.90
57282;DHT22;43129;52.628;10.098;2023-07-28T06:21:22;17.30;99.90
57282;DHT22;43129;52.628;10.098;2023-07-28T06:23:47;17.30;99.90
57282;DHT22;43129;52.628;10.098;2023-07-28T06:26:17;17.40;99.90
57282;DHT22;43129;52.628;10.098;2023-07-28T06:28:46;17.30;99.90
57282;DHT22;43129;52.628;10.098;2023-07-28T06:31:11;17.30;99.90
57282;DHT22;43129;52.628;10.098;2023-07-28T06:33:42;17.30;99.90
57282;DHT22;43129;52.628;10.098;2023-07-28T06:36:10;17.40;99.90
57282;DHT22;43129;52.628;10.098;2023-07-28T06:38:37;17.50;99.90
57282;DHT22;43129;52.628;10.098;2023-07-28T06:41:04;17.50;99.90
57282;DHT22;43129;52.628;10.098;2023-07-28T06:43:32;17.60;99.90
57282;DHT22;43129;52.628;10.098;2023-07-28T06:45:58;17.60;99.90
57282;DHT22;43129;52.628;10.098;2023-07-28T06:48:24;17.70;99.90
57282;DHT22;43129;52.628;10.098;2023-07-28T06:50:52;17.70;99.90
57282;DHT22;43129;52.628;10.098;2023-07-28T06:53:20;17.80;99.90
57282;DHT22;43129;52.628;10.098;2023-07-28T06:55:46;17.80;99.90
57282;DHT22;43129;52.628;10.098;2023-07-28T06:58:12;17.80;99.90
57282;DHT22;43129;52.628;10.098;2023-07-28T07:00:39;17.80;99.90
57282;DHT22;43129;52.628;10.098;2023-07-28T07:03:05;17.90;99.90
57282;DHT22;43129;52.628;10.098;2023-07-28T07:05:33;17.90;99.90
57282;DHT22;43129;52.628;10.098;2023-07-28T07:07:58;17.90;99.90
57282;DHT22;43129;52.628;10.098;2023-07-28T07:10:28;17.90;99.90
57282;DHT22;43129;52.628;10.098;2023-07-28T07:12:54;18.00;99.90
57282;DHT22;43129;52.628;10.098;2023-07-28T07:15:21;18.20;99.90
57282;DHT22;43129;52.628;10.098;2023-07-28T07:17:52;18.30;99.90
57282;DHT22;43129;52.628;10.098;2023-07-28T07:20:17;18.40;99.90
57282;DHT22;43129;52.628;10.098;2023-07-28T07:22:43;18.40;99.90
57282;DHT22;43129;52.628;10.098;2023-07-28T07:25:11;18.50;99.90
57282;DHT22;43129;52.628;10.098;2023-07-28T07:27:36;18.50;99.90
57282;DHT22;43129;52.628;10.098;2023-07-28T07:30:02;18.60;99.90
57282;DHT22;43129;52.628;10.098;2023-07-28T07:32:29;18.50;99.90
57282;DHT22;43129;52.628;10.098;2023-07-28T07:34:55;18.50;99.90
57282;DHT22;43129;52.628;10.098;2023-07-28T07:37:20;18.40;99.90
57282;DHT22;43129;52.628;10.098;2023-07-28T07:39:46;18.30;99.90
57282;DHT22;43129;52.628;10.098;2023-07-28T07:42:14;18.30;99.90
57282;DHT22;43129;52.628;10.098;2023-07-28T07:44:40;18.40;99.90
57282;DHT22;43129;52.628;10.098;2023-07-28T07:47:15;18.40;99.90
57282;DHT22;43129;52.628;10.098;2023-07-28T07:49:41;18.60;99.90
57282;DHT22;43129;52.628;10.098;2023-07-28T07:52:07;18.60;99.90
57282;DHT22;43129;52.628;10.098;2023-07-28T07:54:34;18.70;99.90
57282;DHT22;43129;52.628;10.098;2023-07-28T07:57:00;18.90;99.90
57282;DHT22;43129;52.628;10.098;2023-07-28T07:59:28;18.90;99.90
57282;DHT22;43129;52.628;10.098;2023-07-28T08:01:56;18.90;99.90
57282;DHT22;43129;52.628;10.098;2023-07-28T08:04:21;19.00;99.90
57282;DHT22;43129;52.628;10.098;2023-07-28T08:06:47;19.10;99.90
57282;DHT22;43129;52.628;10.098;2023-07-28T08:09:15;19.20;99.90
57282;DHT22;43129;52.628;10.098;2023-07-28T08:11:40;19.00;99.90
57282;DHT22;43129;52.628;10.098;2023-07-28T08:14:06;18.90;99.90
57282;DHT22;43129;52.628;10.098;2023-07-28T08:16:32;18.90;99.90
57282;DHT22;43129;52.628;10.098;2023-07-28T08:18:57;18.80;99.90
57282;DHT22;43129;52.628;10.098;2023-07-28T08:21:27;18.80;99.90
57282;DHT22;43129;52.628;10.098;2023-07-28T08:23:53;18.80;99.90
57282;DHT22;43129;52.628;10.098;2023-07-28T08:26:19;18.80;99.90
57282;DHT22;43129;52.628;10.098;2023-07-28T08:28:47;18.90;99.90
57282;DHT22;43129;52.628;10.098;2023-07-28T08:31:12;19.00;99.90
57282;DHT22;43129;52.628;10.098;2023-07-28T08:33:40;19.00;99.90
57282;DHT22;43129;52.628;10.098;2023-07-28T08:36:08;19.10;99.90
57282;DHT22;43129;52.628;10.098;2023-07-28T08:38:34;19.20;99.90
57282;DHT22;43129;52.628;10.098;2023-07-28T08:40:59;19.10;99.90
57282;DHT22;43129;52.628;10.098;2023-07-28T08:43:30;19.00;99.90
57282;DHT22;43129;52.628;10.098;2023-07-28T08:45:58;19.00;99.90
57282;DHT22;43129;52.628;10.098;2023-07-28T08:48:26;18.80;99.90
57282;DHT22;43129;52.628;10.098;2023-07-28T08:50:55;18.70;99.90
57282;DHT22;43129;52.628;10.098;2023-07-28T08:56:36;18.80;99.90
57282;DHT22;43129;52.628;10.098;2023-07-28T08:59:02;18.80;99.90
57282;DHT22;43129;52.628;10.098;2023-07-28T09:01:28;18.90;99.90
57282;DHT22;43129;52.628;10.098;2023-07-28T09:03:55;18.90;99.90
57282;DHT22;43129;52.628;10.098;2023-07-28T09:06:29;19.00;99.90
57282;DHT22;43129;52.628;10.098;2023-07-28T09:08:57;19.10;99.90
57282;DHT22;43129;52.628;10.098;2023-07-28T09:11:24;19.20;99.90
57282;DHT22;43129;52.628;10.098;2023-07-28T09:13:53;19.20;99.90
57282;DHT22;43129;52.628;10.098;2023-07-28T09:16:20;19.40;99.90
57282;DHT22;43129;52.628;10.098;2023-07-28T09:18:45;19.50;99.90
57282;DHT22;43129;52.628;10.098;2023-07-28T09:21:18;19.70;99.90
57282;DHT22;43129;52.628;10.098;2023-07-28T09:23:46;19.80;99.90
57282;DHT22;43129;52.628;10.098;2023-07-28T09:26:12;20.00;99.90
57282;DHT22;43129;52.628;10.098;2023-07-28T09:28:41;20.10;99.90
57282;DHT22;43129;52.628;10.098;2023-07-28T09:31:07;20.30;99.90
57282;DHT22;43129;52.628;10.098;2023-07-28T09:33:38;20.60;99.90
57282;DHT22;43129;52.628;10.098;2023-07-28T09:36:10;20.70;99.90
57282;DHT22;43129;52.628;10.098;2023-07-28T09:38:40;20.90;99.90
57282;DHT22;43129;52.628;10.098;2023-07-28T09:41:10;20.80;99.90
57282;DHT22;43129;52.628;10.098;2023-07-28T09:43:40;20.80;99.90
57282;DHT22;43129;52.628;10.098;2023-07-28T09:46:10;20.70;99.90
57282;DHT22;43129;52.628;10.098;2023-07-28T09:48:38;20.70;99.90
57282;DHT22;43129;52.628;10.098;2023-07-28T09:51:11;20.80;99.90
57282;DHT22;43129;52.628;10.098;2023-07-28T09:53:53;21.10;99.90
57282;DHT22;43129;52.628;10.098;2023-07-28T09:56:25;21.30;99.90
57282;DHT22;43129;52.628;10.098;2023-07-28T09:58:53;21.90;99.90
57282;DHT22;43129;52.628;10.098;2023-07-28T10:01:25;22.00;99.90
57282;DHT22;43129;52.628;10.098;2023-07-28T10:03:52;22.20;99.90
57282;DHT22;43129;52.628;10.098;2023-07-28T10:06:19;21.90;99.90
57282;DHT22;43129;52.628;10.098;2023-07-28T10:08:45;21.60;99.90
57282;DHT22;43129;52.628;10.098;2023-07-28T10:11:15;21.60;99.90
57282;DHT22;43129;52.628;10.098;2023-07-28T10:13:44;21.70;99.90
57282;DHT22;43129;52.628;10.098;2023-07-28T10:16:11;21.80;99.90
57282;DHT22;43129;52.628;10.098;2023-07-28T10:18:51;21.90;99.90
57282;DHT22;43129;52.628;10.098;2023-07-28T10:21:19;21.90;99.90
57282;DHT22;43129;52.628;10.098;2023-07-28T10:23:44;21.90;99.90
57282;DHT22;43129;52.628;10.098;2023-07-28T10:26:16;21.80;99.90
57282;DHT22;43129;52.628;10.098;2023-07-28T10:29:11;21.70;99.90
57282;DHT22;43129;52.628;10.098;2023-07-28T10:31:52;22.50;99.90
57282;DHT22;43129;52.628;10.098;2023-07-28T10:34:24;23.10;99.90
57282;DHT22;43129;52.628;10.098;2023-07-28T10:36:59;23.10;99.90
57282;DHT22;43129;52.628;10.098;2023-07-28T10:39:27;23.50;99.90
57282;DHT22;43129;52.628;10.098;2023-07-28T10:42:01;23.30;99.90
57282;DHT22;43129;52.628;10.098;2023-07-28T10:44:32;23.40;99.90
57282;DHT22;43129;52.628;10.098;2023-07-28T10:46:58;24.00;99.90
57282;DHT22;43129;52.628;10.098;2023-07-28T10:49:29;24.30;99.90
57282;DHT22;43129;52.628;10.098;2023-07-28T10:51:55;24.90;99.90
57282;DHT22;43129;52.628;10.098;2023-07-28T10:54:21;24.90;99.90
57282;DHT22;43129;52.628;10.098;2023-07-28T10:56:49;24.90;99.90
57282;DHT22;43129;52.628;10.098;2023-07-28T10:59:17;24.60;99.90
57282;DHT22;43129;52.628;10.098;2023-07-28T11:01:43;24.10;99.90
57282;DHT22;43129;52.628;10.098;2023-07-28T11:04:16;23.70;99.90
57282;DHT22;43129;52.628;10.098;2023-07-28T11:06:44;23.80;99.90
57282;DHT22;43129;52.628;10.098;2023-07-28T11:09:11;24.10;99.90
57282;DHT22;43129;52.628;10.098;2023-07-28T11:11:40;24.30;99.90
57282;DHT22;43129;52.628;10.098;2023-07-28T11:14:07;24.40;99.90
57282;DHT22;43129;52.628;10.098;2023-07-28T11:16:37;24.80;99.90
57282;DHT22;43129;52.628;10.098;2023-07-28T11:19:06;24.90;99.90
57282;DHT22;43129;52.628;10.098;2023-07-28T11:21:38;25.00;99.90
57282;DHT22;43129;52.628;10.098;2023-07-28T11:24:04;24.90;99.90
57282;DHT22;43129;52.628;10.098;2023-07-28T11:26:31;24.60;99.90
57282;DHT22;43129;52.628;10.098;2023-07-28T11:28:58;24.20;99.90
57282;DHT22;43129;52.628;10.098;2023-07-28T11:31:27;23.60;99.90
57282;DHT22;43129;52.628;10.098;2023-07-28T11:33:54;23.30;99.90
57282;DHT22;43129;52.628;10.098;2023-07-28T11:36:27;23.20;99.90
57282;DHT22;43129;52.628;10.098;2023-07-28T11:38:55;23.30;99.90
57282;DHT22;43129;52.628;10.098;2023-07-28T11:41:24;23.20;99.90
57282;DHT22;43129;52.628;10.098;2023-07-28T11:43:52;23.50;99.90
57282;DHT22;43129;52.628;10.098;2023-07-28T11:46:41;24.60;99.90
57282;DHT22;43129;52.628;10.098;2023-07-28T11:49:11;25.20;99.90
57282;DHT22;43129;52.628;10.098;2023-07-28T11:51:41;25.30;99.30
57282;DHT22;43129;52.628;10.098;2023-07-28T11:54:11;25.70;98.00
57282;DHT22;43129;52.628;10.098;2023-07-28T11:56:39;25.70;96.50
57282;DHT22;43129;52.628;10.098;2023-07-28T11:59:07;25.30;96.70
57282;DHT22;43129;52.628;10.098;2023-07-28T12:01:35;24.80;98.60
57282;DHT22;43129;52.628;10.098;2023-07-28T12:04:32;24.40;99.90
57282;DHT22;43129;52.628;10.098;2023-07-28T12:09:31;24.10;99.90
57282;DHT22;43129;52.628;10.098;2023-07-28T12:11:58;23.90;99.90
57282;DHT22;43129;52.628;10.098;2023-07-28T12:14:34;23.70;99.90
57282;DHT22;43129;52.628;10.098;2023-07-28T12:17:00;23.80;99.90
57282;DHT22;43129;52.628;10.098;2023-07-28T12:19:28;23.80;99.90
57282;DHT22;43129;52.628;10.098;2023-07-28T12:21:53;23.60;99.90
57282;DHT22;43129;52.628;10.098;2023-07-28T12:24:21;23.60;99.90
57282;DHT22;43129;52.628;10.098;2023-07-28T12:26:48;23.60;99.90
57282;DHT22;43129;52.628;10.098;2023-07-28T12:29:16;24.70;99.90
57282;DHT22;43129;52.628;10.098;2023-07-28T12:31:44;26.30;97.60
57282;DHT22;43129;52.628;10.098;2023-07-28T12:34:12;26.40;94.60
57282;DHT22;43129;52.628;10.098;2023-07-28T12:36:38;26.50;95.40
57282;DHT22;43129;52.628;10.098;2023-07-28T12:39:04;26.10;95.40
57282;DHT22;43129;52.628;10.098;2023-07-28T12:41:31;25.50;97.10
57282;DHT22;43129;52.628;10.098;2023-07-28T12:43:59;25.00;98.40
57282;DHT22;43129;52.628;10.098;2023-07-28T12:46:24;24.90;99.00
57282;DHT22;43129;52.628;10.098;2023-07-28T12:48:50;24.30;99.90
57282;DHT22;43129;52.628;10.098;2023-07-28T12:51:16;24.10;99.90
57282;DHT22;43129;52.628;10.098;2023-07-28T12:53:41;23.80;99.90
57282;DHT22;43129;52.628;10.098;2023-07-28T12:56:07;23.70;99.90
57282;DHT22;43129;52.628;10.098;2023-07-28T12:58:32;23.80;99.90
57282;DHT22;43129;52.628;10.098;2023-07-28T13:00:59;23.90;99.90
57282;DHT22;43129;52.628;10.098;2023-07-28T13:03:28;24.00;99.90
57282;DHT22;43129;52.628;10.098;2023-07-28T13:05:54;24.20;99.90
57282;DHT22;43129;52.628;10.098;2023-07-28T13:08:24;24.40;99.90
57282;DHT22;43129;52.628;10.098;2023-07-28T13:10:50;24.30;99.90
57282;DHT22;43129;52.628;10.098;2023-07-28T13:13:17;24.10;99.90
57282;DHT22;43129;52.628;10.098;2023-07-28T13:15:45;24.20;99.90
57282;DHT22;43129;52.628;10.098;2023-07-28T13:18:13;24.00;99.90
57282;DHT22;43129;52.628;10.098;2023-07-28T13:20:39;23.90;99.90
57282;DHT22;43129;52.628;10.098;2023-07-28T13:23:04;23.80;99.90
57282;DHT22;43129;52.628;10.098;2023-07-28T13:25:30;24.00;99.90
57282;DHT22;43129;52.628;10.098;2023-07-28T13:27:55;24.60;99.90
57282;DHT22;43129;52.628;10.098;2023-07-28T13:30:23;25.20;99.30
57282;DHT22;43129;52.628;10.098;2023-07-28T13:32:49;25.70;97.80
57282;DHT22;43129;52.628;10.098;2023-07-28T13:35:14;26.60;96.30
57282;DHT22;43129;52.628;10.098;2023-07-28T13:37:43;28.20;92.70
57282;DHT22;43129;52.628;10.098;2023-07-28T13:40:09;29.00;84.00
57282;DHT22;43129;52.628;10.098;2023-07-28T13:42:34;29.20;79.90
57282;DHT22;43129;52.628;10.098;2023-07-28T13:45:03;29.60;77.70
57282;DHT22;43129;52.628;10.098;2023-07-28T13:47:28;30.30;71.70
57282;DHT22;43129;52.628;10.098;2023-07-28T13:49:56;30.20;70.50
57282;DHT22;43129;52.628;10.098;2023-07-28T13:52:22;30.30;68.10
57282;DHT22;43129;52.628;10.098;2023-07-28T13:54:47;29.20;70.50
57282;DHT22;43129;52.628;10.098;2023-07-28T13:57:13;28.50;75.90
57282;DHT22;43129;52.628;10.098;2023-07-28T13:59:41;27.20;84.00
57282;DHT22;43129;52.628;10.098;2023-07-28T14:02:07;27.00;90.20
57282;DHT22;43129;52.628;10.098;2023-07-28T14:04:35;26.60;91.70
57282;DHT22;43129;52.628;10.098;2023-07-28T14:07:00;27.00;90.90
57282;DHT22;43129;52.628;10.098;2023-07-28T14:09:26;27.10;90.40
57282;DHT22;43129;52.628;10.098;2023-07-28T14:11:52;27.00;90.80
57282;DHT22;43129;52.628;10.098;2023-07-28T14:14:22;27.00;91.40
57282;DHT22;43129;52.628;10.098;2023-07-28T14:16:47;26.70;92.70
57282;DHT22;43129;52.628;10.098;2023-07-28T14:19:17;26.70;92.50
57282;DHT22;43129;52.628;10.098;2023-07-28T14:21:43;26.40;94.10
57282;DHT22;43129;52.628;10.098;2023-07-28T14:24:09;26.40;94.80
57282;DHT22;43129;52.628;10.098;2023-07-28T14:26:37;26.50;95.00
57282;DHT22;43129;52.628;10.098;2023-07-28T14:29:02;26.50;93.70
57282;DHT22;43129;52.628;10.098;2023-07-28T14:31:28;26.10;94.60
57282;DHT22;43129;52.628;10.098;2023-07-28T14:33:54;25.90;96.30
57282;DHT22;43129;52.628;10.098;2023-07-28T14:36:22;25.70;96.40
57282;DHT22;43129;52.628;10.098;2023-07-28T14:38:50;25.40;96.80
57282;DHT22;43129;52.628;10.098;2023-07-28T14:41:16;25.30;97.90
57282;DHT22;43129;52.628;10.098;2023-07-28T14:43:41;25.20;98.50
57282;DHT22;43129;52.628;10.098;2023-07-28T14:46:07;25.10;98.80
57282;DHT22;43129;52.628;10.098;2023-07-28T14:48:35;24.90;99.90
57282;DHT22;43129;52.628;10.098;2023-07-28T14:51:03;24.90;99.90
57282;DHT22;43129;52.628;10.098;2023-07-28T14:53:37;24.70;99.90
57282;DHT22;43129;52.628;10.098;2023-07-28T14:56:04;24.80;99.90
57282;DHT22;43129;52.628;10.098;2023-07-28T14:58:30;24.60;99.90
57282;DHT22;43129;52.628;10.098;2023-07-28T15:00:56;24.50;99.90
57282;DHT22;43129;52.628;10.098;2023-07-28T15:03:25;24.10;99.90
57282;DHT22;43129;52.628;10.098;2023-07-28T15:05:56;23.70;99.90
57282;DHT22;43129;52.628;10.098;2023-07-28T15:08:22;23.60;99.90
57282;DHT22;43129;52.628;10.098;2023-07-28T15:10:50;23.50;99.90
57282;DHT22;43129;52.628;10.098;2023-07-28T15:13:16;23.40;99.90
57282;DHT22;43129;52.628;10.098;2023-07-28T15:15:42;23.20;99.90
57282;DHT22;43129;52.628;10.098;2023-07-28T15:18:08;23.00;99.90
57282;DHT22;43129;52.628;10.098;2023-07-28T15:20:36;22.90;99.90
57282;DHT22;43129;52.628;10.098;2023-07-28T15:23:02;22.70;99.90